GOGS

Cap Skirring Airport

Cap Skirring, Senegal
METAR GOGS 161100Z 06012KT CAVOK 26/08 Q1014
Observed Flight Rules
Dec-16 @ 11:00 UTC (4 hours ago) Visual Flight Rules
Wind Visibility Clouds
60° at 12 knots 10,000+ meters
  • Clear skies
Temperatures Readings
Current 26°C / 79°F
Dewpoint 8°C / 46°F
Humidity 32%
Altimeter 29.94" Hg
Pressure 1014 hPa
Elevation 13
METAR GOGS 161100Z 06012KT CAVOK 26/08 Q1014
Observed Flight Rules
Dec-16 @ 11:00 UTC
(4 hours ago)
VFR
Wind Visibility
60° at 12 knots 10,000+ meters
Clouds
  • Clear skies
Temperature Dewpoint
26°C / 79°F 8°C / 46°F
Humidity Altimeter Pressure
32% 29.94" Hg 1014 hPa